sensor_id;sensor_type;location;lat;lon;timestamp;temperature;humidity
6903;DHT22;20232;49.408;8.702;2022-09-09T04:02:14;15.20;99.90
6903;DHT22;20232;49.408;8.702;2022-09-09T04:04:40;15.20;99.90
6903;DHT22;20232;49.408;8.702;2022-09-09T04:07:06;15.30;99.90
6903;DHT22;20232;49.408;8.702;2022-09-09T04:09:32;15.40;99.90
6903;DHT22;20232;49.408;8.702;2022-09-09T04:11:58;15.50;99.90
6903;DHT22;20232;49.408;8.702;2022-09-09T04:14:24;15.50;99.90
6903;DHT22;20232;49.408;8.702;2022-09-09T04:16:53;15.60;99.90
6903;DHT22;20232;49.408;8.702;2022-09-09T04:19:18;15.70;99.90
6903;DHT22;20232;49.408;8.702;2022-09-09T04:21:44;15.70;99.90
6903;DHT22;20232;49.408;8.702;2022-09-09T04:24:10;15.70;99.90
6903;DHT22;20232;49.408;8.702;2022-09-09T04:26:36;15.70;99.90
6903;DHT22;20232;49.408;8.702;2022-09-09T04:29:03;15.70;99.90
6903;DHT22;20232;49.408;8.702;2022-09-09T04:31:28;15.70;99.90
6903;DHT22;20232;49.408;8.702;2022-09-09T04:33:54;15.70;99.90
6903;DHT22;20232;49.408;8.702;2022-09-09T04:36:20;15.80;99.90
6903;DHT22;20232;49.408;8.702;2022-09-09T04:38:46;15.70;99.90
6903;DHT22;20232;49.408;8.702;2022-09-09T04:41:14;15.80;99.90
6903;DHT22;20232;49.408;8.702;2022-09-09T04:43:40;15.80;99.90
6903;DHT22;20232;49.408;8.702;2022-09-09T04:46:06;15.80;99.90
6903;DHT22;20232;49.408;8.702;2022-09-09T04:48:32;15.80;99.90
6903;DHT22;20232;49.408;8.702;2022-09-09T04:51:02;15.80;99.90
6903;DHT22;20232;49.408;8.702;2022-09-09T04:53:29;15.90;99.90
6903;DHT22;20232;49.408;8.702;2022-09-09T04:56:10;15.90;99.90
6903;DHT22;20232;49.408;8.702;2022-09-09T04:58:36;15.90;99.90
6903;DHT22;20232;49.408;8.702;2022-09-09T05:01:10;15.90;99.90
6903;DHT22;20232;49.408;8.702;2022-09-09T05:03:36;15.90;99.90
6903;DHT22;20232;49.408;8.702;2022-09-09T05:06:14;16.00;99.90
6903;DHT22;20232;49.408;8.702;2022-09-09T05:08:41;16.10;99.90
6903;DHT22;20232;49.408;8.702;2022-09-09T05:11:21;16.10;99.90
6903;DHT22;20232;49.408;8.702;2022-09-09T05:13:48;16.10;99.90
6903;DHT22;20232;49.408;8.702;2022-09-09T05:16:15;16.10;99.90
6903;DHT22;20232;49.408;8.702;2022-09-09T05:18:42;16.10;99.90
6903;DHT22;20232;49.408;8.702;2022-09-09T05:21:12;16.10;99.90
6903;DHT22;20232;49.408;8.702;2022-09-09T05:23:38;16.00;99.90
6903;DHT22;20232;49.408;8.702;2022-09-09T05:26:04;16.10;99.90
6903;DHT22;20232;49.408;8.702;2022-09-09T05:28:30;16.10;99.90
6903;DHT22;20232;49.408;8.702;2022-09-09T05:30:58;16.10;99.90
6903;DHT22;20232;49.408;8.702;2022-09-09T05:33:24;16.20;99.90
6903;DHT22;20232;49.408;8.702;2022-09-09T05:36:02;16.30;99.90
6903;DHT22;20232;49.408;8.702;2022-09-09T05:38:30;16.30;99.90
6903;DHT22;20232;49.408;8.702;2022-09-09T05:40:56;16.40;99.90
6903;DHT22;20232;49.408;8.702;2022-09-09T05:43:23;16.50;99.90
6903;DHT22;20232;49.408;8.702;2022-09-09T05:46:02;16.70;99.90
6903;DHT22;20232;49.408;8.702;2022-09-09T05:48:33;16.70;99.90
6903;DHT22;20232;49.408;8.702;2022-09-09T05:51:00;16.70;99.90
6903;DHT22;20232;49.408;8.702;2022-09-09T05:53:29;16.70;99.90
6903;DHT22;20232;49.408;8.702;2022-09-09T05:56:26;16.80;99.90
6903;DHT22;20232;49.408;8.702;2022-09-09T05:58:53;16.90;99.90
6903;DHT22;20232;49.408;8.702;2022-09-09T06:01:24;16.90;99.90
6903;DHT22;20232;49.408;8.702;2022-09-09T06:03:51;17.00;99.90
6903;DHT22;20232;49.408;8.702;2022-09-09T06:06:20;17.10;99.90
6903;DHT22;20232;49.408;8.702;2022-09-09T06:08:53;17.10;99.90
6903;DHT22;20232;49.408;8.702;2022-09-09T06:11:25;17.10;99.90
6903;DHT22;20232;49.408;8.702;2022-09-09T06:13:51;17.00;99.90
6903;DHT22;20232;49.408;8.702;2022-09-09T06:16:21;17.10;99.90
6903;DHT22;20232;49.408;8.702;2022-09-09T06:18:48;17.00;99.90
6903;DHT22;20232;49.408;8.702;2022-09-09T06:21:25;17.00;99.90
6903;DHT22;20232;49.408;8.702;2022-09-09T06:23:51;17.00;99.90
6903;DHT22;20232;49.408;8.702;2022-09-09T06:26:26;17.00;99.90
6903;DHT22;20232;49.408;8.702;2022-09-09T06:28:54;17.00;99.90
6903;DHT22;20232;49.408;8.702;2022-09-09T06:31:24;17.00;99.90
6903;DHT22;20232;49.408;8.702;2022-09-09T06:33:52;17.10;99.90
6903;DHT22;20232;49.408;8.702;2022-09-09T06:36:20;17.30;99.90
6903;DHT22;20232;49.408;8.702;2022-09-09T06:38:46;17.40;99.90
6903;DHT22;20232;49.408;8.702;2022-09-09T06:41:14;17.50;99.90
6903;DHT22;20232;49.408;8.702;2022-09-09T06:43:40;17.50;99.90
6903;DHT22;20232;49.408;8.702;2022-09-09T06:46:14;17.50;99.90
6903;DHT22;20232;49.408;8.702;2022-09-09T06:48:40;17.50;99.90
6903;DHT22;20232;49.408;8.702;2022-09-09T06:51:11;17.60;99.90
6903;DHT22;20232;49.408;8.702;2022-09-09T06:53:38;17.70;99.90
6903;DHT22;20232;49.408;8.702;2022-09-09T06:58:39;17.80;99.90
6903;DHT22;20232;49.408;8.702;2022-09-09T07:01:25;17.80;99.90
6903;DHT22;20232;49.408;8.702;2022-09-09T07:03:54;17.80;99.90
6903;DHT22;20232;49.408;8.702;2022-09-09T07:06:22;17.90;99.90
6903;DHT22;20232;49.408;8.702;2022-09-09T07:08:56;18.00;99.90
6903;DHT22;20232;49.408;8.702;2022-09-09T07:11:26;18.10;99.90
6903;DHT22;20232;49.408;8.702;2022-09-09T07:13:56;18.20;99.90
6903;DHT22;20232;49.408;8.702;2022-09-09T07:16:23;18.10;99.90
6903;DHT22;20232;49.408;8.702;2022-09-09T07:18:53;18.00;99.90
6903;DHT22;20232;49.408;8.702;2022-09-09T07:21:24;18.00;99.90
6903;DHT22;20232;49.408;8.702;2022-09-09T07:23:51;18.00;99.90
6903;DHT22;20232;49.408;8.702;2022-09-09T07:26:20;18.00;99.90
6903;DHT22;20232;49.408;8.702;2022-09-09T07:28:46;18.10;99.90
6903;DHT22;20232;49.408;8.702;2022-09-09T07:31:17;18.30;99.90
6903;DHT22;20232;49.408;8.702;2022-09-09T07:33:44;18.40;99.90
6903;DHT22;20232;49.408;8.702;2022-09-09T07:36:14;18.40;99.90
6903;DHT22;20232;49.408;8.702;2022-09-09T07:38:41;18.50;99.90
6903;DHT22;20232;49.408;8.702;2022-09-09T07:41:10;18.60;99.90
6903;DHT22;20232;49.408;8.702;2022-09-09T07:43:40;18.90;99.90
6903;DHT22;20232;49.408;8.702;2022-09-09T07:46:06;19.10;99.90
6903;DHT22;20232;49.408;8.702;2022-09-09T07:48:32;19.20;99.90
6903;DHT22;20232;49.408;8.702;2022-09-09T07:53:31;19.90;99.90
6903;DHT22;20232;49.408;8.702;2022-09-09T07:56:03;20.10;99.90
6903;DHT22;20232;49.408;8.702;2022-09-09T07:58:29;20.40;99.90
6903;DHT22;20232;49.408;8.702;2022-09-09T08:00:54;20.50;99.90
6903;DHT22;20232;49.408;8.702;2022-09-09T08:03:20;20.40;99.90
6903;DHT22;20232;49.408;8.702;2022-09-09T08:05:47;20.30;99.90
6903;DHT22;20232;49.408;8.702;2022-09-09T08:08:12;20.10;99.90
6903;DHT22;20232;49.408;8.702;2022-09-09T08:10:38;20.10;99.90
6903;DHT22;20232;49.408;8.702;2022-09-09T08:13:04;20.00;99.90
6903;DHT22;20232;49.408;8.702;2022-09-09T08:15:31;19.90;99.90
6903;DHT22;20232;49.408;8.702;2022-09-09T08:17:57;20.00;99.90
6903;DHT22;20232;49.408;8.702;2022-09-09T08:20:23;20.10;99.90
6903;DHT22;20232;49.408;8.702;2022-09-09T08:22:48;20.00;99.90
6903;DHT22;20232;49.408;8.702;2022-09-09T08:25:15;20.00;99.90
6903;DHT22;20232;49.408;8.702;2022-09-09T08:27:41;20.00;99.90
6903;DHT22;20232;49.408;8.702;2022-09-09T08:30:07;19.90;99.90
6903;DHT22;20232;49.408;8.702;2022-09-09T08:32:32;20.00;99.90
6903;DHT22;20232;49.408;8.702;2022-09-09T08:34:58;20.20;99.90
6903;DHT22;20232;49.408;8.702;2022-09-09T08:37:23;20.20;99.90
6903;DHT22;20232;49.408;8.702;2022-09-09T08:39:49;20.20;99.90
6903;DHT22;20232;49.408;8.702;2022-09-09T08:45:09;19.90;99.90
6903;DHT22;20232;49.408;8.702;2022-09-09T08:50:33;19.50;99.90
6903;DHT22;20232;49.408;8.702;2022-09-09T08:53:01;19.30;99.90
6903;DHT22;20232;49.408;8.702;2022-09-09T08:55:39;19.30;99.90
6903;DHT22;20232;49.408;8.702;2022-09-09T08:58:14;19.10;99.90
6903;DHT22;20232;49.408;8.702;2022-09-09T09:01:30;18.90;99.90
6903;DHT22;20232;49.408;8.702;2022-09-09T09:03:34;18.90;99.90
6903;DHT22;20232;49.408;8.702;2022-09-09T09:06:06;19.00;99.90
6903;DHT22;20232;49.408;8.702;2022-09-09T09:08:48;19.20;99.90
6903;DHT22;20232;49.408;8.702;2022-09-09T09:11:18;19.40;99.90
6903;DHT22;20232;49.408;8.702;2022-09-09T09:13:56;20.10;99.90
6903;DHT22;20232;49.408;8.702;2022-09-09T09:19:22;20.60;99.90
6903;DHT22;20232;49.408;8.702;2022-09-09T09:24:51;20.60;99.90
6903;DHT22;20232;49.408;8.702;2022-09-09T09:27:38;21.10;99.90
6903;DHT22;20232;49.408;8.702;2022-09-09T09:30:15;22.00;99.90
6903;DHT22;20232;49.408;8.702;2022-09-09T09:35:29;22.50;99.90
6903;DHT22;20232;49.408;8.702;2022-09-09T09:37:55;22.50;99.90
6903;DHT22;20232;49.408;8.702;2022-09-09T09:40:22;22.60;99.90
6903;DHT22;20232;49.408;8.702;2022-09-09T09:42:57;22.40;99.90
6903;DHT22;20232;49.408;8.702;2022-09-09T09:45:32;22.00;99.90
6903;DHT22;20232;49.408;8.702;2022-09-09T09:47:59;21.80;99.90
6903;DHT22;20232;49.408;8.702;2022-09-09T09:50:25;21.40;99.90
6903;DHT22;20232;49.408;8.702;2022-09-09T09:53:16;21.10;99.90
6903;DHT22;20232;49.408;8.702;2022-09-09T09:55:59;21.90;99.90
6903;DHT22;20232;49.408;8.702;2022-09-09T09:58:27;22.60;99.90
6903;DHT22;20232;49.408;8.702;2022-09-09T10:00:53;22.00;99.90
6903;DHT22;20232;49.408;8.702;2022-09-09T10:03:26;21.50;99.90
6903;DHT22;20232;49.408;8.702;2022-09-09T10:05:53;21.30;99.90
6903;DHT22;20232;49.408;8.702;2022-09-09T10:08:19;21.20;99.90
6903;DHT22;20232;49.408;8.702;2022-09-09T10:19:15;20.00;99.90
6903;DHT22;20232;49.408;8.702;2022-09-09T10:27:04;20.10;99.90
6903;DHT22;20232;49.408;8.702;2022-09-09T10:29:47;21.00;99.90
6903;DHT22;20232;49.408;8.702;2022-09-09T10:32:38;21.50;99.90
6903;DHT22;20232;49.408;8.702;2022-09-09T10:37:49;22.40;99.90
6903;DHT22;20232;49.408;8.702;2022-09-09T10:40:42;22.80;99.90
6903;DHT22;20232;49.408;8.702;2022-09-09T10:44:01;23.10;99.90
6903;DHT22;20232;49.408;8.702;2022-09-09T10:49:57;22.00;99.90
6903;DHT22;20232;49.408;8.702;2022-09-09T10:55:43;23.90;99.90
6903;DHT22;20232;49.408;8.702;2022-09-09T10:58:41;24.60;98.90
6903;DHT22;20232;49.408;8.702;2022-09-09T11:01:25;24.80;97.20
6903;DHT22;20232;49.408;8.702;2022-09-09T11:03:57;25.60;94.50
6903;DHT22;20232;49.408;8.702;2022-09-09T11:06:30;25.60;93.40
6903;DHT22;20232;49.408;8.702;2022-09-09T11:08:59;25.80;91.40
6903;DHT22;20232;49.408;8.702;2022-09-09T11:11:52;25.80;90.40
6903;DHT22;20232;49.408;8.702;2022-09-09T11:14:39;26.60;89.20
6903;DHT22;20232;49.408;8.702;2022-09-09T11:17:12;27.60;85.60
6903;DHT22;20232;49.408;8.702;2022-09-09T11:19:41;27.80;82.20
6903;DHT22;20232;49.408;8.702;2022-09-09T11:22:12;27.50;80.20
6903;DHT22;20232;49.408;8.702;2022-09-09T11:24:41;26.80;82.30
6903;DHT22;20232;49.408;8.702;2022-09-09T11:27:21;26.60;83.70
6903;DHT22;20232;49.408;8.702;2022-09-09T11:32:58;26.80;84.00
6903;DHT22;20232;49.408;8.702;2022-09-09T11:38:32;26.50;82.20
6903;DHT22;20232;49.408;8.702;2022-09-09T11:41:05;24.70;87.00
6903;DHT22;20232;49.408;8.702;2022-09-09T11:43:45;24.80;89.40
6903;DHT22;20232;49.408;8.702;2022-09-09T11:46:14;25.70;87.00
6903;DHT22;20232;49.408;8.702;2022-09-09T11:48:44;25.20;86.80
6903;DHT22;20232;49.408;8.702;2022-09-09T11:51:33;24.50;90.10
6903;DHT22;20232;49.408;8.702;2022-09-09T11:54:33;25.20;85.60
6903;DHT22;20232;49.408;8.702;2022-09-09T11:57:32;24.50;85.90
6903;DHT22;20232;49.408;8.702;2022-09-09T12:00:00;23.90;87.80
6903;DHT22;20232;49.408;8.702;2022-09-09T12:02:27;25.00;86.70
6903;DHT22;20232;49.408;8.702;2022-09-09T12:05:02;25.40;84.20
6903;DHT22;20232;49.408;8.702;2022-09-09T12:10:17;27.00;78.10
6903;DHT22;20232;49.408;8.702;2022-09-09T12:12:44;25.90;81.40
6903;DHT22;20232;49.408;8.702;2022-09-09T12:17:43;24.00;86.70
6903;DHT22;20232;49.408;8.702;2022-09-09T12:28:20;25.30;83.10
6903;DHT22;20232;49.408;8.702;2022-09-09T12:31:24;24.80;84.50
6903;DHT22;20232;49.408;8.702;2022-09-09T12:33:51;23.60;86.70
6903;DHT22;20232;49.408;8.702;2022-09-09T12:36:23;23.40;88.50
6903;DHT22;20232;49.408;8.702;2022-09-09T12:38:50;23.10;90.20
6903;DHT22;20232;49.408;8.702;2022-09-09T12:41:22;24.40;89.20
6903;DHT22;20232;49.408;8.702;2022-09-09T12:43:49;26.10;84.00
6903;DHT22;20232;49.408;8.702;2022-09-09T12:46:31;27.20;77.70
6903;DHT22;20232;49.408;8.702;2022-09-09T12:48:59;27.80;77.40
6903;DHT22;20232;49.408;8.702;2022-09-09T12:51:28;28.40;75.60
6903;DHT22;20232;49.408;8.702;2022-09-09T12:53:55;29.40;71.30
6903;DHT22;20232;49.408;8.702;2022-09-09T12:56:23;28.20;71.90
6903;DHT22;20232;49.408;8.702;2022-09-09T12:58:53;26.10;76.60
6903;DHT22;20232;49.408;8.702;2022-09-09T13:01:30;25.10;81.60
6903;DHT22;20232;49.408;8.702;2022-09-09T13:03:57;25.80;81.20
6903;DHT22;20232;49.408;8.702;2022-09-09T13:06:28;27.00;77.90
6903;DHT22;20232;49.408;8.702;2022-09-09T13:08:56;27.40;77.40
6903;DHT22;20232;49.408;8.702;2022-09-09T13:11:33;26.30;77.70
6903;DHT22;20232;49.408;8.702;2022-09-09T13:14:01;25.80;80.00
6903;DHT22;20232;49.408;8.702;2022-09-09T13:16:29;26.10;80.40
6903;DHT22;20232;49.408;8.702;2022-09-09T13:19:09;24.90;83.40
6903;DHT22;20232;49.408;8.702;2022-09-09T13:21:36;23.80;87.10
6903;DHT22;20232;49.408;8.702;2022-09-09T13:24:04;23.10;90.10
6903;DHT22;20232;49.408;8.702;2022-09-09T13:26:33;22.70;90.40
6903;DHT22;20232;49.408;8.702;2022-09-09T13:29:19;22.20;90.90
6903;DHT22;20232;49.408;8.702;2022-09-09T13:31:45;21.80;92.00
6903;DHT22;20232;49.408;8.702;2022-09-09T13:34:30;21.50;92.50
6903;DHT22;20232;49.408;8.702;2022-09-09T13:37:06;21.20;92.90
6903;DHT22;20232;49.408;8.702;2022-09-09T13:39:51;20.90;91.60
6903;DHT22;20232;49.408;8.702;2022-09-09T13:42:25;20.30;92.30
6903;DHT22;20232;49.408;8.702;2022-09-09T13:44:51;19.90;93.90
6903;DHT22;20232;49.408;8.702;2022-09-09T13:47:19;19.70;96.20
6903;DHT22;20232;49.408;8.702;2022-09-09T13:49:45;19.60;99.00
6903;DHT22;20232;49.408;8.702;2022-09-09T13:52:16;19.20;99.60
6903;DHT22;20232;49.408;8.702;2022-09-09T13:54:46;19.10;99.90
6903;DHT22;20232;49.408;8.702;2022-09-09T13:57:21;19.10;99.90
6903;DHT22;20232;49.408;8.702;2022-09-09T13:59:47;19.10;99.90
6903;DHT22;20232;49.408;8.702;2022-09-09T14:02:13;19.00;99.90
6903;DHT22;20232;49.408;8.702;2022-09-09T14:04:39;19.20;99.90
6903;DHT22;20232;49.408;8.702;2022-09-09T14:07:11;19.50;99.90
6903;DHT22;20232;49.408;8.702;2022-09-09T14:09:37;19.90;99.90
6903;DHT22;20232;49.408;8.702;2022-09-09T14:12:02;20.10;99.90
6903;DHT22;20232;49.408;8.702;2022-09-09T14:14:28;20.80;99.90
6903;DHT22;20232;49.408;8.702;2022-09-09T14:16:53;21.40;99.90
6903;DHT22;20232;49.408;8.702;2022-09-09T14:19:19;22.50;99.90
6903;DHT22;20232;49.408;8.702;2022-09-09T14:21:45;23.30;99.90
6903;DHT22;20232;49.408;8.702;2022-09-09T14:24:10;24.60;98.80
6903;DHT22;20232;49.408;8.702;2022-09-09T14:26:37;27.10;95.70
6903;DHT22;20232;49.408;8.702;2022-09-09T14:29:03;30.00;86.70
6903;DHT22;20232;49.408;8.702;2022-09-09T14:31:29;31.30;82.80
6903;DHT22;20232;49.408;8.702;2022-09-09T14:33:54;33.20;70.50
6903;DHT22;20232;49.408;8.702;2022-09-09T14:36:20;33.50;66.90
6903;DHT22;20232;49.408;8.702;2022-09-09T14:38:46;33.70;62.20
6903;DHT22;20232;49.408;8.702;2022-09-09T14:41:14;34.70;60.10
6903;DHT22;20232;49.408;8.702;2022-09-09T14:43:42;34.70;61.00
6903;DHT22;20232;49.408;8.702;2022-09-09T14:46:10;33.70;63.30
6903;DHT22;20232;49.408;8.702;2022-09-09T14:48:36;34.10;61.10
6903;DHT22;20232;49.408;8.702;2022-09-09T14:51:13;33.90;60.60
6903;DHT22;20232;49.408;8.702;2022-09-09T14:53:41;31.90;61.20
6903;DHT22;20232;49.408;8.702;2022-09-09T14:56:12;30.10;65.50
6903;DHT22;20232;49.408;8.702;2022-09-09T14:58:38;27.80;70.10
6903;DHT22;20232;49.408;8.702;2022-09-09T15:01:05;26.00;76.70
6903;DHT22;20232;49.408;8.702;2022-09-09T15:03:31;24.60;81.10
6903;DHT22;20232;49.408;8.702;2022-09-09T15:05:56;23.60;84.10
6903;DHT22;20232;49.408;8.702;2022-09-09T15:08:24;22.90;89.10
6903;DHT22;20232;49.408;8.702;2022-09-09T15:10:49;22.40;90.80
6903;DHT22;20232;49.408;8.702;2022-09-09T15:13:15;22.00;92.00
6903;DHT22;20232;49.408;8.702;2022-09-09T15:15:42;21.70;93.30
6903;DHT22;20232;49.408;8.702;2022-09-09T15:18:09;21.50;95.10
6903;DHT22;20232;49.408;8.702;2022-09-09T15:20:34;21.40;95.70
6903;DHT22;20232;49.408;8.702;2022-09-09T15:23:02;21.20;97.50
6903;DHT22;20232;49.408;8.702;2022-09-09T15:25:28;21.10;97.40
6903;DHT22;20232;49.408;8.702;2022-09-09T15:27:54;21.00;98.80
6903;DHT22;20232;49.408;8.702;2022-09-09T15:30:19;20.90;99.60
6903;DHT22;20232;49.408;8.702;2022-09-09T15:32:45;20.80;99.90
6903;DHT22;20232;49.408;8.702;2022-09-09T15:35:10;20.70;99.90
6903;DHT22;20232;49.408;8.702;2022-09-09T15:37:36;20.60;99.90
6903;DHT22;20232;49.408;8.702;2022-09-09T15:40:01;20.40;99.90
6903;DHT22;20232;49.408;8.702;2022-09-09T15:42:27;19.00;99.90
6903;DHT22;20232;49.408;8.702;2022-09-09T15:44:53;17.40;99.90
6903;DHT22;20232;49.408;8.702;2022-09-09T15:47:18;16.80;99.90
6903;DHT22;20232;49.408;8.702;2022-09-09T15:49:45;16.80;99.90
6903;DHT22;20232;49.408;8.702;2022-09-09T15:52:10;16.90;99.90
6903;DHT22;20232;49.408;8.702;2022-09-09T15:54:37;16.90;99.90
6903;DHT22;20232;49.408;8.702;2022-09-09T15:57:07;16.90;99.90
6903;DHT22;20232;49.408;8.702;2022-09-09T15:59:33;17.00;99.90
6903;DHT22;20232;49.408;8.702;2022-09-09T16:02:00;17.20;99.90
6903;DHT22;20232;49.408;8.702;2022-09-09T16:04:26;17.90;99.90
6903;DHT22;20232;49.408;8.702;2022-09-09T16:06:59;18.20;99.90
6903;DHT22;20232;49.408;8.702;2022-09-09T16:09:26;20.00;99.90
6903;DHT22;20232;49.408;8.702;2022-09-09T16:11:52;21.70;99.90
6903;DHT22;20232;49.408;8.702;2022-09-09T16:14:19;22.60;99.90
6903;DHT22;20232;49.408;8.702;2022-09-09T16:16:45;23.00;99.90
6903;DHT22;20232;49.408;8.702;2022-09-09T16:19:11;22.40;99.90
6903;DHT22;20232;49.408;8.702;2022-09-09T16:21:43;22.00;99.90
6903;DHT22;20232;49.408;8.702;2022-09-09T16:24:12;20.90;99.90
6903;DHT22;20232;49.408;8.702;2022-09-09T16:26:41;20.00;99.90
6903;DHT22;20232;49.408;8.702;2022-09-09T16:29:08;19.30;99.90
6903;DHT22;20232;49.408;8.702;2022-09-09T16:31:34;18.80;99.90
6903;DHT22;20232;49.408;8.702;2022-09-09T16:34:00;18.60;99.90
6903;DHT22;20232;49.408;8.702;2022-09-09T16:36:27;18.10;99.90
6903;DHT22;20232;49.408;8.702;2022-09-09T16:38:54;17.80;99.90
6903;DHT22;20232;49.408;8.702;2022-09-09T16:41:23;17.80;99.90
6903;DHT22;20232;49.408;8.702;2022-09-09T16:43:53;17.60;99.90
6903;DHT22;20232;49.408;8.702;2022-09-09T16:46:20;17.40;99.90
6903;DHT22;20232;49.408;8.702;2022-09-09T16:48:47;17.30;99.90
6903;DHT22;20232;49.408;8.702;2022-09-09T16:51:18;17.30;99.90
6903;DHT22;20232;49.408;8.702;2022-09-09T16:53:44;17.10;99.90
6903;DHT22;20232;49.408;8.702;2022-09-09T16:56:15;17.10;99.90
6903;DHT22;20232;49.408;8.702;2022-09-09T16:58:42;17.00;99.90
6903;DHT22;20232;49.408;8.702;2022-09-09T17:01:11;17.00;99.90
6903;DHT22;20232;49.408;8.702;2022-09-09T17:03:39;16.90;99.90
6903;DHT22;20232;49.408;8.702;2022-09-09T17:06:12;16.90;99.90
6903;DHT22;20232;49.408;8.702;2022-09-09T17:08:39;16.80;99.90
6903;DHT22;20232;49.408;8.702;2022-09-09T17:11:25;16.80;99.90
6903;DHT22;20232;49.408;8.702;2022-09-09T17:13:52;16.70;99.90
6903;DHT22;20232;49.408;8.702;2022-09-09T17:16:19;16.70;99.90
6903;DHT22;20232;49.408;8.702;2022-09-09T17:18:49;16.60;99.90
6903;DHT22;20232;49.408;8.702;2022-09-09T17:21:16;16.50;99.90
6903;DHT22;20232;49.408;8.702;2022-09-09T17:23:43;16.50;99.90
6903;DHT22;20232;49.408;8.702;2022-09-09T17:26:12;16.50;99.90
6903;DHT22;20232;49.408;8.702;2022-09-09T17:28:39;16.50;99.90
6903;DHT22;20232;49.408;8.702;2022-09-09T17:31:06;16.50;99.90
6903;DHT22;20232;49.408;8.702;2022-09-09T17:33:34;16.50;99.90
6903;DHT22;20232;49.408;8.702;2022-09-09T17:36:09;16.40;99.90
6903;DHT22;20232;49.408;8.702;2022-09-09T17:38:36;16.40;99.90
6903;DHT22;20232;49.408;8.702;2022-09-09T17:41:07;16.30;99.90
6903;DHT22;20232;49.408;8.702;2022-09-09T17:43:34;16.30;99.90
6903;DHT22;20232;49.408;8.702;2022-09-09T17:46:09;16.20;99.90
6903;DHT22;20232;49.408;8.702;2022-09-09T17:48:36;16.20;99.90
6903;DHT22;20232;49.408;8.702;2022-09-09T17:51:03;16.10;99.90
6903;DHT22;20232;49.408;8.702;2022-09-09T17:53:29;16.10;99.90
6903;DHT22;20232;49.408;8.702;2022-09-09T17:56:04;16.00;99.90
6903;DHT22;20232;49.408;8.702;2022-09-09T17:58:30;16.00;99.90
6903;DHT22;20232;49.408;8.702;2022-09-09T18:00:56;16.10;99.90
6903;DHT22;20232;49.408;8.702;2022-09-09T18:03:26;16.10;99.90
6903;DHT22;20232;49.408;8.702;2022-09-09T18:06:00;16.20;99.90
6903;DHT22;20232;49.408;8.702;2022-09-09T18:08:26;16.20;99.90
6903;DHT22;20232;49.408;8.702;2022-09-09T18:10:53;16.30;99.90
6903;DHT22;20232;49.408;8.702;2022-09-09T18:13:20;16.30;99.90
6903;DHT22;20232;49.408;8.702;2022-09-09T18:15:46;16.30;99.90
6903;DHT22;20232;49.408;8.702;2022-09-09T18:18:11;16.30;99.90
6903;DHT22;20232;49.408;8.702;2022-09-09T18:20:39;16.30;99.90
6903;DHT22;20232;49.408;8.702;2022-09-09T18:23:05;16.30;99.90
6903;DHT22;20232;49.408;8.702;2022-09-09T18:25:36;16.30;99.90
6903;DHT22;20232;49.408;8.702;2022-09-09T18:28:01;16.40;99.90
6903;DHT22;20232;49.408;8.702;2022-09-09T18:30:27;16.40;99.90
6903;DHT22;20232;49.408;8.702;2022-09-09T18:32:54;16.30;99.90
6903;DHT22;20232;49.408;8.702;2022-09-09T18:35:20;16.30;99.90
6903;DHT22;20232;49.408;8.702;2022-09-09T18:37:46;16.30;99.90
6903;DHT22;20232;49.408;8.702;2022-09-09T18:40:12;16.30;99.90
6903;DHT22;20232;49.408;8.702;2022-09-09T18:42:37;16.30;99.90
6903;DHT22;20232;49.408;8.702;2022-09-09T18:45:03;16.20;99.90
6903;DHT22;20232;49.408;8.702;2022-09-09T18:47:29;16.20;99.90
6903;DHT22;20232;49.408;8.702;2022-09-09T18:49:54;16.10;99.90
6903;DHT22;20232;49.408;8.702;2022-09-09T18:52:20;16.00;99.90
6903;DHT22;20232;49.408;8.702;2022-09-09T18:54:47;15.70;99.90
6903;DHT22;20232;49.408;8.702;2022-09-09T18:57:13;15.40;99.90
6903;DHT22;20232;49.408;8.702;2022-09-09T18:59:38;15.30;99.90
6903;DHT22;20232;49.408;8.702;2022-09-09T19:02:04;15.20;99.90
6903;DHT22;20232;49.408;8.702;2022-09-09T19:04:30;15.30;99.90
6903;DHT22;20232;49.408;8.702;2022-09-09T19:06:57;15.30;99.90
6903;DHT22;20232;49.408;8.702;2022-09-09T19:09:25;15.30;99.90
6903;DHT22;20232;49.408;8.702;2022-09-09T19:11:50;15.20;99.90
6903;DHT22;20232;49.408;8.702;2022-09-09T19:14:16;15.20;99.90
6903;DHT22;20232;49.408;8.702;2022-09-09T19:16:43;15.10;99.90
6903;DHT22;20232;49.408;8.702;2022-09-09T19:19:21;15.00;99.90
6903;DHT22;20232;49.408;8.702;2022-09-09T19:21:47;15.00;99.90
6903;DHT22;20232;49.408;8.702;2022-09-09T19:24:19;15.00;99.90
6903;DHT22;20232;49.408;8.702;2022-09-09T19:26:47;15.00;99.90
6903;DHT22;20232;49.408;8.702;2022-09-09T19:29:17;14.90;99.90
6903;DHT22;20232;49.408;8.702;2022-09-09T19:31:44;14.90;99.90
6903;DHT22;20232;49.408;8.702;2022-09-09T19:34:10;14.90;99.90
6903;DHT22;20232;49.408;8.702;2022-09-09T19:36:36;14.90;99.90
6903;DHT22;20232;49.408;8.702;2022-09-09T19:39:03;14.80;99.90
6903;DHT22;20232;49.408;8.702;2022-09-09T19:41:29;14.80;99.90
6903;DHT22;20232;49.408;8.702;2022-09-09T19:44:00;14.70;99.90
6903;DHT22;20232;49.408;8.702;2022-09-09T19:46:31;14.60;99.90
6903;DHT22;20232;49.408;8.702;2022-09-09T19:48:57;14.50;99.90
6903;DHT22;20232;49.408;8.702;2022-09-09T19:51:25;14.50;99.90
6903;DHT22;20232;49.408;8.702;2022-09-09T19:53:53;14.40;99.90
6903;DHT22;20232;49.408;8.702;2022-09-09T19:56:24;14.40;99.90
6903;DHT22;20232;49.408;8.702;2022-09-09T19:58:50;14.40;99.90
6903;DHT22;20232;49.408;8.702;2022-09-09T20:01:22;14.30;99.90
6903;DHT22;20232;49.408;8.702;2022-09-09T20:03:50;14.40;99.90
6903;DHT22;20232;49.408;8.702;2022-09-09T20:06:18;14.40;99.90
6903;DHT22;20232;49.408;8.702;2022-09-09T20:08:45;14.40;99.90
6903;DHT22;20232;49.408;8.702;2022-09-09T20:11:13;14.40;99.90
6903;DHT22;20232;49.408;8.702;2022-09-09T20:13:39;14.40;99.90
6903;DHT22;20232;49.408;8.702;2022-09-09T20:16:07;14.50;99.90
6903;DHT22;20232;49.408;8.702;2022-09-09T20:18:35;14.50;99.90
6903;DHT22;20232;49.408;8.702;2022-09-09T20:21:07;14.60;99.90
6903;DHT22;20232;49.408;8.702;2022-09-09T20:23:34;14.60;99.90
6903;DHT22;20232;49.408;8.702;2022-09-09T20:26:04;14.50;99.90
6903;DHT22;20232;49.408;8.702;2022-09-09T20:28:32;14.60;99.90
6903;DHT22;20232;49.408;8.702;2022-09-09T20:31:09;14.60;99.90
6903;DHT22;20232;49.408;8.702;2022-09-09T20:33:36;14.70;99.90
6903;DHT22;20232;49.408;8.702;2022-09-09T20:36:09;14.60;99.90
6903;DHT22;20232;49.408;8.702;2022-09-09T20:38:36;14.60;99.90
6903;DHT22;20232;49.408;8.702;2022-09-09T20:41:03;14.60;99.90
6903;DHT22;20232;49.408;8.702;2022-09-09T20:43:29;14.60;99.90
6903;DHT22;20232;49.408;8.702;2022-09-09T20:45:54;14.70;99.90
6903;DHT22;20232;49.408;8.702;2022-09-09T20:48:23;14.70;99.90
6903;DHT22;20232;49.408;8.702;2022-09-09T20:50:49;14.70;99.90
6903;DHT22;20232;49.408;8.702;2022-09-09T20:53:14;14.70;99.90
6903;DHT22;20232;49.408;8.702;2022-09-09T20:55:40;14.70;99.90
6903;DHT22;20232;49.408;8.702;2022-09-09T20:58:05;14.70;99.90
6903;DHT22;20232;49.408;8.702;2022-09-09T21:00:32;14.70;99.90
6903;DHT22;20232;49.408;8.702;2022-09-09T21:02:57;14.80;99.90